Terminal Aerodrome Forecast
Issued by NWS Sioux Falls, SD

Home | Current Version | Previous Version | Graphics & Text | Print | Product List | Glossary On
Versions: 1 2 3 4 5 6 7 8 9 10 11 12 13 14 15 16 17 18 19 20 21 22 23 24 25 26
000
FTUS43 KFSD 180540
TAFSUX
TAF
KSUX 180540Z 1806/1906 01009KT P6SM -RA OVC060
     FM180800 35016G20KT P6SM OVC100
     FM181300 33013G23KT P6SM SCT150
     FM181600 32011KT P6SM BKN030
     FM181800 33017G27KT P6SM SCT040
     FM190000 32011G21KT P6SM SKC=

USA.gov is the U.S. government's official web portal to all federal, state and local government web resources and services.